Aviation Digital Data Service (ADDS)

Output produced by METARs form (2351 UTC 24 February 2018)
found at http://aviationweather.gov/adds/metars/
 
KSMO 242251Z 24010KT 10SM CLR 14/00 A3022 RMK AO2 SLP233 T01390000
KSMO 241738Z 2418/2518 VRB03KT P6SM SKC 
     FM242000 23010KT P6SM SKC 
     FM250300 VRB03KT P6SM SKC 
     FM251200 01005KT P6SM SKC
       
KLAX 242253Z 26013KT 10SM FEW300 15/00 A3023 RMK AO2 SLP236 T01500000
KLAX 242345Z 2500/2606 26013KT P6SM SKC 
     FM250400 29007KT P6SM SKC 
     FM250800 01006KT P6SM SKC 
     FM251100 06004KT P6SM SKC 
     FM252000 26012KT P6SM SKC 
     FM260400 28006KT P6SM SKC
       
KVNY 242251Z 29008G14KT 10SM CLR 17/M09 A3018 RMK AO2 SLP218 T01671089
KVNY 242159Z 2422/2518 VRB05KT P6SM SKC 
     FM242300 36012G22KT P6SM SKC 
     FM250200 36009KT P6SM SKC
       
KCMA 242255Z 25010KT 10SM CLR 16/M04 A3023 RMK AO2 SLP248 T01561039
KCMA 242159Z 2422/2518 26012KT P6SM SKC 
     FM250300 VRB03KT P6SM SKC 
     FM251000 07007KT P6SM SKC 
     FM251400 06012KT P6SM SKC